sensor_id;sensor_type;location;lat;lon;timestamp;pressure;altitude;pressure_sealevel;temperature;humidity
71974;BME280;59840;52.122;5.404;2023-05-01T00:01:59;101997.19;;;7.31;95.83
71974;BME280;59840;52.122;5.404;2023-05-01T00:04:27;101986.69;;;7.31;95.23
71974;BME280;59840;52.122;5.404;2023-05-01T00:06:54;101993.75;;;7.30;95.73
71974;BME280;59840;52.122;5.404;2023-05-01T00:09:20;101996.78;;;7.27;95.43
71974;BME280;59840;52.122;5.404;2023-05-01T00:11:47;101994.16;;;7.27;95.60
71974;BME280;59840;52.122;5.404;2023-05-01T00:14:14;101989.50;;;7.23;95.75
71974;BME280;59840;52.122;5.404;2023-05-01T00:16:40;101985.00;;;7.17;96.23
71974;BME280;59840;52.122;5.404;2023-05-01T00:19:08;101970.44;;;7.14;96.27
71974;BME280;59840;52.122;5.404;2023-05-01T00:21:34;101978.09;;;7.09;96.36
71974;BME280;59840;52.122;5.404;2023-05-01T00:24:01;101972.22;;;7.07;96.91
71974;BME280;59840;52.122;5.404;2023-05-01T00:26:27;101964.34;;;7.07;96.94
71974;BME280;59840;52.122;5.404;2023-05-01T00:28:57;101966.34;;;7.05;97.19
71974;BME280;59840;52.122;5.404;2023-05-01T00:31:24;101958.63;;;6.97;96.68
71974;BME280;59840;52.122;5.404;2023-05-01T00:33:51;101956.63;;;6.99;97.17
71974;BME280;59840;52.122;5.404;2023-05-01T00:36:18;101960.88;;;7.00;96.76
71974;BME280;59840;52.122;5.404;2023-05-01T00:38:44;101956.63;;;6.99;96.51
71974;BME280;59840;52.122;5.404;2023-05-01T00:41:11;101955.00;;;6.98;96.83
71974;BME280;59840;52.122;5.404;2023-05-01T00:43:38;101946.75;;;7.01;97.19
71974;BME280;59840;52.122;5.404;2023-05-01T00:46:04;101949.84;;;7.11;97.09
71974;BME280;59840;52.122;5.404;2023-05-01T00:48:33;101942.81;;;7.18;97.01
71974;BME280;59840;52.122;5.404;2023-05-01T00:51:00;101931.50;;;7.18;96.39
71974;BME280;59840;52.122;5.404;2023-05-01T00:53:28;101935.34;;;7.15;96.74
71974;BME280;59840;52.122;5.404;2023-05-01T00:55:55;101928.47;;;7.14;96.33
71974;BME280;59840;52.122;5.404;2023-05-01T00:58:23;101924.22;;;7.13;96.57
71974;BME280;59840;52.122;5.404;2023-05-01T01:00:50;101920.34;;;7.09;96.45
71974;BME280;59840;52.122;5.404;2023-05-01T01:03:18;101916.25;;;7.00;96.52
71974;BME280;59840;52.122;5.404;2023-05-01T01:06:06;101917.88;;;7.01;96.67
71974;BME280;59840;52.122;5.404;2023-05-01T01:09:03;101910.44;;;7.04;95.92
71974;BME280;59840;52.122;5.404;2023-05-01T01:11:56;101903.34;;;6.98;95.80
71974;BME280;59840;52.122;5.404;2023-05-01T01:14:32;101906.97;;;6.97;95.74
71974;BME280;59840;52.122;5.404;2023-05-01T01:17:24;101898.09;;;6.98;95.83
71974;BME280;59840;52.122;5.404;2023-05-01T01:20:08;101889.59;;;6.90;95.47
71974;BME280;59840;52.122;5.404;2023-05-01T01:22:42;101886.34;;;6.88;96.38
71974;BME280;59840;52.122;5.404;2023-05-01T01:31:11;101875.38;;;6.78;96.32
71974;BME280;59840;52.122;5.404;2023-05-01T01:34:01;101877.19;;;6.77;96.46
71974;BME280;59840;52.122;5.404;2023-05-01T01:41:49;101864.13;;;6.84;96.89
71974;BME280;59840;52.122;5.404;2023-05-01T01:44:38;101860.47;;;6.78;97.29
71974;BME280;59840;52.122;5.404;2023-05-01T01:47:10;101860.41;;;6.71;97.39
71974;BME280;59840;52.122;5.404;2023-05-01T01:49:41;101850.94;;;6.70;98.04
71974;BME280;59840;52.122;5.404;2023-05-01T01:52:11;101855.56;;;6.68;98.02
71974;BME280;59840;52.122;5.404;2023-05-01T01:54:49;101845.66;;;6.64;98.29
71974;BME280;59840;52.122;5.404;2023-05-01T01:57:18;101838.97;;;6.61;98.46
71974;BME280;59840;52.122;5.404;2023-05-01T01:59:46;101840.59;;;6.62;98.13
71974;BME280;59840;52.122;5.404;2023-05-01T02:02:17;101828.09;;;6.58;98.31
71974;BME280;59840;52.122;5.404;2023-05-01T02:04:44;101830.09;;;6.62;98.63
71974;BME280;59840;52.122;5.404;2023-05-01T02:07:12;101820.84;;;6.66;98.34
71974;BME280;59840;52.122;5.404;2023-05-01T02:09:41;101820.22;;;6.64;97.99
71974;BME280;59840;52.122;5.404;2023-05-01T02:12:10;101816.38;;;6.60;98.47
71974;BME280;59840;52.122;5.404;2023-05-01T02:14:38;101814.16;;;6.57;98.62
71974;BME280;59840;52.122;5.404;2023-05-01T02:17:05;101813.75;;;6.60;98.77
71974;BME280;59840;52.122;5.404;2023-05-01T02:19:34;101807.94;;;6.65;98.34
71974;BME280;59840;52.122;5.404;2023-05-01T02:22:04;101808.50;;;6.60;98.40
71974;BME280;59840;52.122;5.404;2023-05-01T02:24:31;101802.88;;;6.57;98.45
71974;BME280;59840;52.122;5.404;2023-05-01T02:27:03;101808.69;;;6.59;98.09
71974;BME280;59840;52.122;5.404;2023-05-01T02:29:32;101792.97;;;6.52;98.16
71974;BME280;59840;52.122;5.404;2023-05-01T02:31:59;101794.78;;;6.52;98.19
71974;BME280;59840;52.122;5.404;2023-05-01T02:34:26;101794.97;;;6.50;98.06
71974;BME280;59840;52.122;5.404;2023-05-01T02:36:53;101795.78;;;6.51;98.55
71974;BME280;59840;52.122;5.404;2023-05-01T02:39:20;101788.53;;;6.53;98.44
71974;BME280;59840;52.122;5.404;2023-05-01T02:41:47;101788.09;;;6.49;98.89
71974;BME280;59840;52.122;5.404;2023-05-01T02:44:14;101785.66;;;6.48;98.79
71974;BME280;59840;52.122;5.404;2023-05-01T02:46:44;101785.66;;;6.48;98.41
71974;BME280;59840;52.122;5.404;2023-05-01T02:49:12;101783.47;;;6.51;99.00
71974;BME280;59840;52.122;5.404;2023-05-01T02:51:41;101781.47;;;6.53;98.86
71974;BME280;59840;52.122;5.404;2023-05-01T02:54:08;101783.69;;;6.56;99.03
71974;BME280;59840;52.122;5.404;2023-05-01T02:56:35;101778.03;;;6.59;98.80
71974;BME280;59840;52.122;5.404;2023-05-01T02:59:01;101775.03;;;6.62;98.77
71974;BME280;59840;52.122;5.404;2023-05-01T03:01:28;101768.16;;;6.61;99.00
71974;BME280;59840;52.122;5.404;2023-05-01T03:03:55;101771.78;;;6.60;99.03
71974;BME280;59840;52.122;5.404;2023-05-01T03:06:21;101766.34;;;6.62;99.42
71974;BME280;59840;52.122;5.404;2023-05-01T03:08:48;101770.00;;;6.67;98.98
71974;BME280;59840;52.122;5.404;2023-05-01T03:11:14;101766.00;;;6.71;98.77
71974;BME280;59840;52.122;5.404;2023-05-01T03:13:41;101768.03;;;6.76;99.37
71974;BME280;59840;52.122;5.404;2023-05-01T03:16:08;101752.94;;;6.85;98.83
71974;BME280;59840;52.122;5.404;2023-05-01T03:18:35;101754.78;;;6.91;99.12
71974;BME280;59840;52.122;5.404;2023-05-01T03:21:01;101747.53;;;6.93;99.31
71974;BME280;59840;52.122;5.404;2023-05-01T03:23:29;101743.69;;;6.95;99.18
71974;BME280;59840;52.122;5.404;2023-05-01T03:25:55;101739.03;;;6.97;98.74
71974;BME280;59840;52.122;5.404;2023-05-01T03:28:22;101738.03;;;6.98;98.87
71974;BME280;59840;52.122;5.404;2023-05-01T03:30:49;101743.09;;;7.00;99.20
71974;BME280;59840;52.122;5.404;2023-05-01T03:33:17;101737.44;;;7.03;99.42
71974;BME280;59840;52.122;5.404;2023-05-01T03:35:44;101731.00;;;7.05;99.58
71974;BME280;59840;52.122;5.404;2023-05-01T03:38:11;101729.78;;;7.08;99.45
71974;BME280;59840;52.122;5.404;2023-05-01T03:40:37;101732.41;;;7.08;99.14
71974;BME280;59840;52.122;5.404;2023-05-01T03:43:04;101725.75;;;7.12;99.19
71974;BME280;59840;52.122;5.404;2023-05-01T03:45:30;101730.00;;;7.13;99.08
71974;BME280;59840;52.122;5.404;2023-05-01T03:47:57;101728.38;;;7.12;99.63
71974;BME280;59840;52.122;5.404;2023-05-01T03:50:24;101725.53;;;7.07;99.59
71974;BME280;59840;52.122;5.404;2023-05-01T03:52:50;101724.94;;;7.05;99.69
71974;BME280;59840;52.122;5.404;2023-05-01T03:55:17;101726.34;;;7.07;100.00
71974;BME280;59840;52.122;5.404;2023-05-01T03:57:43;101720.72;;;7.11;100.00
71974;BME280;59840;52.122;5.404;2023-05-01T04:00:12;101715.28;;;7.19;100.00
71974;BME280;59840;52.122;5.404;2023-05-01T04:02:39;101714.28;;;7.26;100.00
71974;BME280;59840;52.122;5.404;2023-05-01T04:05:06;101713.84;;;7.29;99.97
71974;BME280;59840;52.122;5.404;2023-05-01T04:07:33;101715.09;;;7.27;100.00
71974;BME280;59840;52.122;5.404;2023-05-01T04:09:59;101712.25;;;7.28;100.00
71974;BME280;59840;52.122;5.404;2023-05-01T04:12:26;101709.63;;;7.35;100.00
71974;BME280;59840;52.122;5.404;2023-05-01T04:14:52;101705.59;;;7.39;100.00
71974;BME280;59840;52.122;5.404;2023-05-01T04:17:19;101699.72;;;7.44;99.90
71974;BME280;59840;52.122;5.404;2023-05-01T04:19:45;101697.91;;;7.44;99.52
71974;BME280;59840;52.122;5.404;2023-05-01T04:22:13;101710.44;;;7.49;99.40
71974;BME280;59840;52.122;5.404;2023-05-01T04:24:39;101706.81;;;7.50;99.39
71974;BME280;59840;52.122;5.404;2023-05-01T04:27:06;101703.19;;;7.51;99.65
71974;BME280;59840;52.122;5.404;2023-05-01T04:29:32;101701.97;;;7.47;99.44
71974;BME280;59840;52.122;5.404;2023-05-01T04:31:59;101698.31;;;7.41;99.54
71974;BME280;59840;52.122;5.404;2023-05-01T04:34:26;101697.50;;;7.40;99.51
71974;BME280;59840;52.122;5.404;2023-05-01T04:36:55;101702.75;;;7.40;100.00
71974;BME280;59840;52.122;5.404;2023-05-01T04:39:24;101699.72;;;7.44;100.00
71974;BME280;59840;52.122;5.404;2023-05-01T04:41:51;101702.16;;;7.45;100.00
71974;BME280;59840;52.122;5.404;2023-05-01T04:44:17;101701.56;;;7.43;100.00
71974;BME280;59840;52.122;5.404;2023-05-01T04:46:44;101698.53;;;7.46;100.00
71974;BME280;59840;52.122;5.404;2023-05-01T04:49:11;101706.81;;;7.50;100.00
71974;BME280;59840;52.122;5.404;2023-05-01T04:51:38;101707.81;;;7.55;99.67
71974;BME280;59840;52.122;5.404;2023-05-01T04:54:04;101705.78;;;7.64;99.23
71974;BME280;59840;52.122;5.404;2023-05-01T04:56:31;101710.81;;;7.72;98.94
71974;BME280;59840;52.122;5.404;2023-05-01T04:58:57;101702.53;;;7.75;98.25
71974;BME280;59840;52.122;5.404;2023-05-01T05:01:24;101701.94;;;7.80;98.90
71974;BME280;59840;52.122;5.404;2023-05-01T05:03:51;101712.22;;;7.88;97.94
71974;BME280;59840;52.122;5.404;2023-05-01T05:06:17;101705.16;;;7.95;97.05
71974;BME280;59840;52.122;5.404;2023-05-01T05:08:44;101702.28;;;8.03;96.75
71974;BME280;59840;52.122;5.404;2023-05-01T05:11:11;101695.59;;;8.07;96.84
71974;BME280;59840;52.122;5.404;2023-05-01T05:13:37;101704.06;;;8.16;96.75
71974;BME280;59840;52.122;5.404;2023-05-01T05:16:04;101704.69;;;8.18;97.01
71974;BME280;59840;52.122;5.404;2023-05-01T05:18:31;101696.41;;;8.14;96.85
71974;BME280;59840;52.122;5.404;2023-05-01T05:21:02;101702.06;;;8.18;96.20
71974;BME280;59840;52.122;5.404;2023-05-01T05:23:28;101704.69;;;8.18;95.82
71974;BME280;59840;52.122;5.404;2023-05-01T05:25:56;101704.25;;;8.21;96.11
71974;BME280;59840;52.122;5.404;2023-05-01T05:28:27;101701.81;;;8.26;96.16
71974;BME280;59840;52.122;5.404;2023-05-01T05:30:56;101704.22;;;8.34;95.20
71974;BME280;59840;52.122;5.404;2023-05-01T05:33:23;101702.41;;;8.41;95.06
71974;BME280;59840;52.122;5.404;2023-05-01T05:35:51;101700.56;;;8.48;94.05
71974;BME280;59840;52.122;5.404;2023-05-01T05:38:18;101698.09;;;8.53;93.27
71974;BME280;59840;52.122;5.404;2023-05-01T05:40:44;101695.25;;;8.61;92.63
71974;BME280;59840;52.122;5.404;2023-05-01T05:43:11;101696.84;;;8.62;92.23
71974;BME280;59840;52.122;5.404;2023-05-01T05:45:37;101686.94;;;8.64;92.37
71974;BME280;59840;52.122;5.404;2023-05-01T05:48:04;101687.09;;;8.69;92.01
71974;BME280;59840;52.122;5.404;2023-05-01T05:50:31;101694.72;;;8.78;92.19
71974;BME280;59840;52.122;5.404;2023-05-01T05:52:57;101684.38;;;8.83;90.65
71974;BME280;59840;52.122;5.404;2023-05-01T05:55:24;101689.81;;;8.88;89.89
71974;BME280;59840;52.122;5.404;2023-05-01T05:57:51;101685.75;;;8.92;89.36
71974;BME280;59840;52.122;5.404;2023-05-01T06:00:17;101684.31;;;8.96;91.04
71974;BME280;59840;52.122;5.404;2023-05-01T06:02:44;101684.69;;;8.99;93.39
71974;BME280;59840;52.122;5.404;2023-05-01T06:05:10;101689.72;;;9.01;92.91
71974;BME280;59840;52.122;5.404;2023-05-01T06:07:38;101676.34;;;9.02;89.13
71974;BME280;59840;52.122;5.404;2023-05-01T06:10:05;101683.19;;;9.10;87.11
71974;BME280;59840;52.122;5.404;2023-05-01T06:12:32;101678.69;;;9.17;85.63
71974;BME280;59840;52.122;5.404;2023-05-01T06:15:01;101683.09;;;9.23;85.64
71974;BME280;59840;52.122;5.404;2023-05-01T06:17:28;101679.03;;;9.27;85.28
71974;BME280;59840;52.122;5.404;2023-05-01T06:19:55;101673.69;;;9.34;83.98
71974;BME280;59840;52.122;5.404;2023-05-01T06:22:21;101672.00;;;9.39;83.88
71974;BME280;59840;52.122;5.404;2023-05-01T06:24:48;101676.00;;;9.49;83.20
71974;BME280;59840;52.122;5.404;2023-05-01T06:27:14;101675.72;;;9.57;82.35
71974;BME280;59840;52.122;5.404;2023-05-01T06:29:41;101671.19;;;9.64;81.69
71974;BME280;59840;52.122;5.404;2023-05-01T06:32:07;101672.28;;;9.74;83.10
71974;BME280;59840;52.122;5.404;2023-05-01T06:34:34;101670.19;;;9.83;82.15
71974;BME280;59840;52.122;5.404;2023-05-01T06:37:01;101678.03;;;9.90;82.74
71974;BME280;59840;52.122;5.404;2023-05-01T06:39:27;101659.72;;;9.95;81.77
71974;BME280;59840;52.122;5.404;2023-05-01T06:41:54;101664.13;;;10.01;81.48
71974;BME280;59840;52.122;5.404;2023-05-01T06:44:21;101664.03;;;10.07;79.92
71974;BME280;59840;52.122;5.404;2023-05-01T06:46:47;101663.59;;;10.11;81.19
71974;BME280;59840;52.122;5.404;2023-05-01T06:49:14;101661.75;;;10.11;79.76
71974;BME280;59840;52.122;5.404;2023-05-01T06:51:41;101663.16;;;10.14;80.08
71974;BME280;59840;52.122;5.404;2023-05-01T06:54:07;101662.94;;;10.15;79.22
71974;BME280;59840;52.122;5.404;2023-05-01T06:56:34;101666.78;;;10.19;80.13
71974;BME280;59840;52.122;5.404;2023-05-01T06:59:00;101671.97;;;10.26;79.88
71974;BME280;59840;52.122;5.404;2023-05-01T07:01:28;101662.81;;;10.28;78.41
71974;BME280;59840;52.122;5.404;2023-05-01T07:03:54;101660.31;;;10.33;78.49
71974;BME280;59840;52.122;5.404;2023-05-01T07:06:21;101656.22;;;10.37;79.01
71974;BME280;59840;52.122;5.404;2023-05-01T07:08:48;101661.03;;;10.40;78.19
71974;BME280;59840;52.122;5.404;2023-05-01T07:11:16;101656.69;;;10.46;77.85
71974;BME280;59840;52.122;5.404;2023-05-01T07:13:43;101657.84;;;10.50;78.16
71974;BME280;59840;52.122;5.404;2023-05-01T07:16:09;101659.47;;;10.51;77.90
71974;BME280;59840;52.122;5.404;2023-05-01T07:18:36;101661.22;;;10.57;78.86
71974;BME280;59840;52.122;5.404;2023-05-01T07:21:03;101659.97;;;10.60;77.73
71974;BME280;59840;52.122;5.404;2023-05-01T07:23:30;101656.88;;;10.63;77.21
71974;BME280;59840;52.122;5.404;2023-05-01T07:25:56;101658.06;;;10.67;76.86
71974;BME280;59840;52.122;5.404;2023-05-01T07:28:23;101655.88;;;10.75;77.95
71974;BME280;59840;52.122;5.404;2023-05-01T07:30:49;101663.03;;;10.87;76.78
71974;BME280;59840;52.122;5.404;2023-05-01T07:33:16;101657.22;;;10.96;77.68
71974;BME280;59840;52.122;5.404;2023-05-01T07:35:43;101659.06;;;11.07;80.06
71974;BME280;59840;52.122;5.404;2023-05-01T07:38:10;101659.97;;;11.13;78.70
71974;BME280;59840;52.122;5.404;2023-05-01T07:40:37;101660.56;;;11.15;76.68
71974;BME280;59840;52.122;5.404;2023-05-01T07:43:04;101658.13;;;11.14;76.92
71974;BME280;59840;52.122;5.404;2023-05-01T07:45:30;101657.69;;;11.17;76.69
71974;BME280;59840;52.122;5.404;2023-05-01T07:47:57;101656.88;;;11.16;75.44
71974;BME280;59840;52.122;5.404;2023-05-01T07:50:24;101654.47;;;11.15;76.19
71974;BME280;59840;52.122;5.404;2023-05-01T07:52:51;101656.09;;;11.16;76.28
71974;BME280;59840;52.122;5.404;2023-05-01T07:55:20;101658.03;;;11.20;76.74
71974;BME280;59840;52.122;5.404;2023-05-01T07:57:47;101651.28;;;11.24;76.22
71974;BME280;59840;52.122;5.404;2023-05-01T08:00:14;101653.91;;;11.24;77.11
71974;BME280;59840;52.122;5.404;2023-05-01T08:02:40;101650.25;;;11.25;75.57
71974;BME280;59840;52.122;5.404;2023-05-01T08:05:07;101655.06;;;11.28;75.90
71974;BME280;59840;52.122;5.404;2023-05-01T08:07:34;101655.53;;;11.25;77.83
71974;BME280;59840;52.122;5.404;2023-05-01T08:10:00;101648.97;;;11.28;77.56
71974;BME280;59840;52.122;5.404;2023-05-01T08:12:28;101652.66;;;11.27;77.33
71974;BME280;59840;52.122;5.404;2023-05-01T08:14:54;101658.75;;;11.27;76.85
71974;BME280;59840;52.122;5.404;2023-05-01T08:17:21;101656.69;;;11.29;76.65
71974;BME280;59840;52.122;5.404;2023-05-01T08:19:48;101657.59;;;11.35;76.86
71974;BME280;59840;52.122;5.404;2023-05-01T08:22:15;101663.47;;;11.37;75.98
71974;BME280;59840;52.122;5.404;2023-05-01T08:24:42;101655.31;;;11.38;76.99
71974;BME280;59840;52.122;5.404;2023-05-01T08:27:08;101654.84;;;11.41;79.57
71974;BME280;59840;52.122;5.404;2023-05-01T08:29:35;101660.81;;;11.49;80.77
71974;BME280;59840;52.122;5.404;2023-05-01T08:32:02;101653.47;;;11.51;79.23
71974;BME280;59840;52.122;5.404;2023-05-01T08:34:28;101654.16;;;11.58;78.66
71974;BME280;59840;52.122;5.404;2023-05-01T08:36:55;101655.19;;;11.57;77.00
71974;BME280;59840;52.122;5.404;2023-05-01T08:39:22;101656.34;;;11.61;77.50
71974;BME280;59840;52.122;5.404;2023-05-01T08:41:49;101657.72;;;11.63;77.51
71974;BME280;59840;52.122;5.404;2023-05-01T08:44:16;101657.84;;;11.68;79.79
71974;BME280;59840;52.122;5.404;2023-05-01T08:47:09;101663.63;;;11.77;80.33
71974;BME280;59840;52.122;5.404;2023-05-01T08:49:39;101667.38;;;11.81;79.73
71974;BME280;59840;52.122;5.404;2023-05-01T08:52:07;101661.41;;;11.86;79.52
71974;BME280;59840;52.122;5.404;2023-05-01T08:54:35;101655.31;;;11.85;78.06
71974;BME280;59840;52.122;5.404;2023-05-01T08:57:05;101664.72;;;11.93;78.71
71974;BME280;59840;52.122;5.404;2023-05-01T08:59:36;101657.94;;;11.97;79.45
71974;BME280;59840;52.122;5.404;2023-05-01T09:02:06;101660.69;;;12.02;78.10
71974;BME280;59840;52.122;5.404;2023-05-01T09:04:38;101665.84;;;12.08;79.72
71974;BME280;59840;52.122;5.404;2023-05-01T09:07:05;101659.84;;;12.13;78.21
71974;BME280;59840;52.122;5.404;2023-05-01T09:09:32;101657.06;;;12.20;78.30
71974;BME280;59840;52.122;5.404;2023-05-01T09:12:01;101663.59;;;12.29;76.75
71974;BME280;59840;52.122;5.404;2023-05-01T09:14:32;101657.13;;;12.36;77.00
71974;BME280;59840;52.122;5.404;2023-05-01T09:16:59;101658.28;;;12.40;77.27
71974;BME280;59840;52.122;5.404;2023-05-01T09:19:25;101658.59;;;12.44;76.88
71974;BME280;59840;52.122;5.404;2023-05-01T09:21:53;101661.19;;;12.56;76.58
71974;BME280;59840;52.122;5.404;2023-05-01T09:24:22;101670.59;;;12.63;76.22
71974;BME280;59840;52.122;5.404;2023-05-01T09:26:50;101662.50;;;12.70;75.46
71974;BME280;59840;52.122;5.404;2023-05-01T09:32:25;101666.31;;;12.91;72.33
71974;BME280;59840;52.122;5.404;2023-05-01T09:34:55;101662.00;;;13.01;71.01
71974;BME280;59840;52.122;5.404;2023-05-01T09:37:34;101662.41;;;13.10;72.50
71974;BME280;59840;52.122;5.404;2023-05-01T09:40:05;101674.78;;;13.21;70.74
71974;BME280;59840;52.122;5.404;2023-05-01T09:42:33;101669.72;;;13.36;70.87
71974;BME280;59840;52.122;5.404;2023-05-01T09:45:03;101667.72;;;13.44;71.43
71974;BME280;59840;52.122;5.404;2023-05-01T09:47:30;101668.41;;;13.56;69.95
71974;BME280;59840;52.122;5.404;2023-05-01T09:49:57;101667.03;;;13.70;70.12
71974;BME280;59840;52.122;5.404;2023-05-01T09:52:28;101675.13;;;13.80;70.66
71974;BME280;59840;52.122;5.404;2023-05-01T09:55:15;101662.06;;;13.95;69.05
71974;BME280;59840;52.122;5.404;2023-05-01T09:57:43;101669.03;;;14.01;66.50
71974;BME280;59840;52.122;5.404;2023-05-01T10:00:12;101667.75;;;14.04;68.84
71974;BME280;59840;52.122;5.404;2023-05-01T10:02:44;101672.25;;;14.03;64.81
71974;BME280;59840;52.122;5.404;2023-05-01T10:05:11;101662.91;;;14.01;63.47
71974;BME280;59840;52.122;5.404;2023-05-01T10:07:53;101664.03;;;14.05;64.46
71974;BME280;59840;52.122;5.404;2023-05-01T10:10:22;101653.25;;;14.12;62.15
71974;BME280;59840;52.122;5.404;2023-05-01T10:12:49;101670.59;;;14.19;61.50
71974;BME280;59840;52.122;5.404;2023-05-01T10:15:15;101662.66;;;14.24;61.90
71974;BME280;59840;52.122;5.404;2023-05-01T10:17:52;101668.41;;;14.38;61.44
71974;BME280;59840;52.122;5.404;2023-05-01T10:20:20;101658.59;;;14.38;59.90
71974;BME280;59840;52.122;5.404;2023-05-01T10:22:46;101663.47;;;14.47;59.92
71974;BME280;59840;52.122;5.404;2023-05-01T10:25:16;101668.34;;;14.55;61.80
71974;BME280;59840;52.122;5.404;2023-05-01T10:27:43;101668.44;;;14.65;61.89
71974;BME280;59840;52.122;5.404;2023-05-01T10:30:09;101661.31;;;14.70;61.67
71974;BME280;59840;52.122;5.404;2023-05-01T10:32:40;101677.38;;;14.81;59.14
71974;BME280;59840;52.122;5.404;2023-05-01T10:35:14;101670.00;;;14.93;58.98
71974;BME280;59840;52.122;5.404;2023-05-01T10:37:50;101671.41;;;15.00;60.05
71974;BME280;59840;52.122;5.404;2023-05-01T10:43:28;101668.22;;;14.98;59.64
71974;BME280;59840;52.122;5.404;2023-05-01T10:51:29;101678.06;;;15.35;58.09
71974;BME280;59840;52.122;5.404;2023-05-01T10:56:42;101681.78;;;15.34;58.31
71974;BME280;59840;52.122;5.404;2023-05-01T10:59:09;101679.97;;;15.39;57.71
71974;BME280;59840;52.122;5.404;2023-05-01T11:01:42;101683.75;;;15.49;57.47
71974;BME280;59840;52.122;5.404;2023-05-01T11:09:52;101677.34;;;15.45;54.70
71974;BME280;59840;52.122;5.404;2023-05-01T11:15:12;101690.91;;;15.43;54.16
71974;BME280;59840;52.122;5.404;2023-05-01T11:17:50;101688.69;;;15.35;55.94
71974;BME280;59840;52.122;5.404;2023-05-01T11:22:54;101691.47;;;15.50;57.13
71974;BME280;59840;52.122;5.404;2023-05-01T11:27:51;101679.34;;;15.59;57.05
71974;BME280;59840;52.122;5.404;2023-05-01T11:30:18;101677.44;;;15.60;56.67
71974;BME280;59840;52.122;5.404;2023-05-01T11:32:46;101675.88;;;15.64;57.14
71974;BME280;59840;52.122;5.404;2023-05-01T11:35:23;101678.56;;;15.69;55.29
71974;BME280;59840;52.122;5.404;2023-05-01T11:37:54;101673.25;;;15.69;55.94
71974;BME280;59840;52.122;5.404;2023-05-01T11:40:26;101672.56;;;15.89;59.42
71974;BME280;59840;52.122;5.404;2023-05-01T11:43:06;101671.59;;;16.10;58.42
71974;BME280;59840;52.122;5.404;2023-05-01T11:45:35;101677.75;;;16.16;55.00
71974;BME280;59840;52.122;5.404;2023-05-01T11:48:02;101673.72;;;16.13;55.99
71974;BME280;59840;52.122;5.404;2023-05-01T11:50:35;101679.91;;;16.24;56.53
71974;BME280;59840;52.122;5.404;2023-05-01T11:53:12;101679.66;;;16.35;56.99
71974;BME280;59840;52.122;5.404;2023-05-01T11:55:41;101670.63;;;16.47;58.52
71974;BME280;59840;52.122;5.404;2023-05-01T11:58:08;101675.25;;;16.71;58.04
71974;BME280;59840;52.122;5.404;2023-05-01T12:00:37;101678.97;;;16.70;57.09
71974;BME280;59840;52.122;5.404;2023-05-01T12:03:07;101682.69;;;16.69;57.61
71974;BME280;59840;52.122;5.404;2023-05-01T12:05:35;101675.50;;;16.70;54.41
71974;BME280;59840;52.122;5.404;2023-05-01T12:10:40;101679.25;;;16.74;57.36
71974;BME280;59840;52.122;5.404;2023-05-01T12:13:10;101677.13;;;16.91;61.08
71974;BME280;59840;52.122;5.404;2023-05-01T12:15:40;101675.53;;;17.05;57.63
71974;BME280;59840;52.122;5.404;2023-05-01T12:18:07;101671.81;;;16.96;56.89
71974;BME280;59840;52.122;5.404;2023-05-01T12:20:42;101680.28;;;16.68;59.24
71974;BME280;59840;52.122;5.404;2023-05-01T12:23:13;101678.91;;;16.50;60.71
71974;BME280;59840;52.122;5.404;2023-05-01T12:25:43;101688.50;;;16.46;60.94
71974;BME280;59840;52.122;5.404;2023-05-01T12:28:15;101691.09;;;16.31;61.01
71974;BME280;59840;52.122;5.404;2023-05-01T12:30:44;101694.22;;;16.07;62.77
71974;BME280;59840;52.122;5.404;2023-05-01T12:33:13;101704.41;;;15.73;63.09
71974;BME280;59840;52.122;5.404;2023-05-01T12:35:41;101700.63;;;15.64;64.71
71974;BME280;59840;52.122;5.404;2023-05-01T12:40:39;101693.38;;;15.55;63.87
71974;BME280;59840;52.122;5.404;2023-05-01T12:43:06;101699.69;;;15.43;65.14
71974;BME280;59840;52.122;5.404;2023-05-01T12:45:38;101695.91;;;15.39;65.80
71974;BME280;59840;52.122;5.404;2023-05-01T12:48:12;101699.88;;;15.37;65.15
71974;BME280;59840;52.122;5.404;2023-05-01T12:50:40;101693.81;;;15.41;64.25
71974;BME280;59840;52.122;5.404;2023-05-01T12:53:08;101700.19;;;15.40;64.49
71974;BME280;59840;52.122;5.404;2023-05-01T12:55:43;101696.44;;;15.36;65.05
71974;BME280;59840;52.122;5.404;2023-05-01T12:58:11;101697.22;;;15.37;65.21
71974;BME280;59840;52.122;5.404;2023-05-01T13:00:49;101697.16;;;15.27;65.01
71974;BME280;59840;52.122;5.404;2023-05-01T13:03:24;101693.03;;;15.09;68.99
71974;BME280;59840;52.122;5.404;2023-05-01T13:06:01;101688.16;;;15.01;67.95
71974;BME280;59840;52.122;5.404;2023-05-01T13:08:35;101694.47;;;14.95;68.03
71974;BME280;59840;52.122;5.404;2023-05-01T13:11:10;101683.84;;;14.90;68.42
71974;BME280;59840;52.122;5.404;2023-05-01T13:13:38;101687.25;;;14.90;69.33
71974;BME280;59840;52.122;5.404;2023-05-01T13:18:33;101688.19;;;14.74;66.73
71974;BME280;59840;52.122;5.404;2023-05-01T13:21:10;101687.75;;;14.55;67.61
71974;BME280;59840;52.122;5.404;2023-05-01T13:23:37;101682.31;;;14.45;68.79
71974;BME280;59840;52.122;5.404;2023-05-01T13:26:07;101688.19;;;14.47;71.76
71974;BME280;59840;52.122;5.404;2023-05-01T13:28:40;101686.75;;;14.39;70.79
71974;BME280;59840;52.122;5.404;2023-05-01T13:31:12;101684.75;;;14.30;72.76
71974;BME280;59840;52.122;5.404;2023-05-01T13:33:40;101690.25;;;14.23;73.91
71974;BME280;59840;52.122;5.404;2023-05-01T13:36:12;101691.81;;;14.19;73.81
71974;BME280;59840;52.122;5.404;2023-05-01T13:38:52;101694.97;;;14.16;75.85
71974;BME280;59840;52.122;5.404;2023-05-01T13:41:21;101689.59;;;14.11;72.18
71974;BME280;59840;52.122;5.404;2023-05-01T13:43:48;101701.50;;;14.08;73.47
71974;BME280;59840;52.122;5.404;2023-05-01T13:46:17;101701.31;;;14.15;70.78
71974;BME280;59840;52.122;5.404;2023-05-01T13:48:44;101696.31;;;14.19;69.88
71974;BME280;59840;52.122;5.404;2023-05-01T13:51:13;101692.66;;;14.25;66.97